Time;durP1;ratioP1;P1;durP2;ratioP2;P2;SDS_P1;SDS_P2;PMS_P1;PMS_P2;Temp;Humidity;BMP_temperature;BMP_pressure;BME280_temperature;BME280_humidity;BME280_pressure;Samples;Min_cycle;Max_cycle;Signal;HPM_P1;HPM_P2
2023/04/16 00:01:36;;;;;;;19.30;5.45;;;;;;;9.78;100.00;102072.00;6133123;23;20033;-67
2023/04/16 00:04:02;;;;;;;12.05;4.82;;;;;;;9.70;100.00;102076.91;6145081;23;20029;-66
2023/04/16 00:06:30;;;;;;;19.20;5.22;;;;;;;9.68;100.00;102073.56;6144879;23;20037;-67
2023/04/16 00:08:57;;;;;;;18.75;6.05;;;;;;;-145.50;100.00;65435.88;6111379;23;20025;-67
2023/04/16 00:11:23;;;;;;;19.02;5.72;;;;;;;-145.50;100.00;65435.88;6143597;23;20061;-67
2023/04/16 00:13:50;;;;;;;12.93;5.10;;;;;;;-145.50;100.00;65435.88;6132672;23;20368;-66
2023/04/16 00:16:16;;;;;;;15.45;5.63;;;;;;;-145.50;100.00;65435.88;6141081;23;20025;-66
2023/04/16 00:18:43;;;;;;;12.70;4.75;;;;;;;-145.50;100.00;65435.88;6146232;23;20075;-66
2023/04/16 00:21:09;;;;;;;15.00;5.75;;;;;;;-145.50;100.00;65435.88;6140603;23;20025;-65
2023/04/16 00:23:37;;;;;;;18.90;5.65;;;;;;;-145.50;100.00;65435.88;6147437;23;20101;-65
2023/04/16 00:26:03;;;;;;;14.15;5.80;;;;;;;-145.50;100.00;65435.88;6113039;23;20025;-68
2023/04/16 00:28:30;;;;;;;14.02;5.75;;;;;;;-145.50;100.00;65435.88;6139308;23;20036;-66
2023/04/16 00:30:56;;;;;;;16.95;6.30;;;;;;;-145.50;100.00;65435.88;6134343;23;20065;-68
2023/04/16 00:33:23;;;;;;;14.88;5.18;;;;;;;-145.50;100.00;65435.88;6146063;23;20034;-65
2023/04/16 00:35:50;;;;;;;22.23;6.15;;;;;;;-145.50;100.00;65435.88;6146346;23;20476;-65
2023/04/16 00:38:16;;;;;;;20.65;6.05;;;;;;;-145.50;100.00;65435.88;6138005;23;20029;-66
2023/04/16 00:40:43;;;;;;;14.48;5.82;;;;;;;-145.50;100.00;65435.88;6144794;23;20473;-66
2023/04/16 00:43:09;;;;;;;15.93;5.57;;;;;;;-145.50;100.00;65435.88;6130303;23;20076;-67
2023/04/16 00:45:36;;;;;;;15.05;6.15;;;;;;;-145.50;100.00;65435.88;6145501;23;20025;-66
2023/04/16 00:48:03;;;;;;;15.93;6.70;;;;;;;-145.50;100.00;65435.88;6138897;23;20040;-67
2023/04/16 00:50:29;;;;;;;20.63;6.55;;;;;;;-145.50;100.00;65435.88;6118974;23;20025;-66
2023/04/16 00:52:56;;;;;;;12.43;5.78;;;;;;;-145.50;100.00;65435.88;6146982;23;20092;-68
2023/04/16 00:55:23;;;;;;;18.70;6.47;;;;;;;-145.50;100.00;65435.88;6134667;23;20662;-66
2023/04/16 00:57:50;;;;;;;17.48;6.30;;;;;;;-145.50;100.00;65435.88;6141015;23;20505;-65
2023/04/16 01:00:16;;;;;;;16.40;6.38;;;;;;;-145.50;100.00;65435.88;6135523;23;20706;-66
2023/04/16 01:02:43;;;;;;;21.88;7.40;;;;;;;-145.50;100.00;65435.88;6144603;23;20393;-66
2023/04/16 01:05:10;;;;;;;21.30;6.78;;;;;;;-145.50;100.00;65435.88;6145897;23;20025;-67
2023/04/16 01:07:36;;;;;;;14.10;6.03;;;;;;;-145.50;100.00;65435.88;6138018;23;20025;-67
2023/04/16 01:10:03;;;;;;;17.35;6.82;;;;;;;-145.50;100.00;65435.88;6140766;23;20349;-68
2023/04/16 01:12:30;;;;;;;20.95;6.70;;;;;;;-145.50;100.00;65435.88;6132000;23;20052;-68
2023/04/16 01:14:56;;;;;;;19.13;6.57;;;;;;;-145.50;100.00;65435.88;6147416;23;20062;-69
2023/04/16 01:17:22;;;;;;;19.88;7.25;;;;;;;-145.50;100.00;65435.88;6138067;23;20637;-69
2023/04/16 01:19:49;;;;;;;13.50;6.28;;;;;;;-145.50;100.00;65435.88;6145561;23;20104;-68
2023/04/16 01:22:16;;;;;;;14.85;6.15;;;;;;;-145.50;100.00;65435.88;6141749;23;20022;-67
2023/04/16 01:24:42;;;;;;;18.80;7.35;;;;;;;-145.50;100.00;65435.88;6130401;23;20085;-67
2023/04/16 01:27:09;;;;;;;20.83;7.60;;;;;;;-145.50;100.00;65435.88;6145193;23;20070;-69
2023/04/16 01:29:35;;;;;;;19.13;6.82;;;;;;;-145.50;100.00;65435.88;6136808;23;20021;-67
2023/04/16 01:32:02;;;;;;;20.00;7.50;;;;;;;-145.50;100.00;65435.88;6144166;23;20092;-67
2023/04/16 01:34:28;;;;;;;17.83;7.90;;;;;;;-145.50;100.00;65435.88;6139725;23;20486;-69
2023/04/16 01:36:55;;;;;;;21.33;7.47;;;;;;;-145.50;100.00;65435.88;6140053;23;20025;-69
2023/04/16 01:39:21;;;;;;;16.60;6.97;;;;;;;-145.50;100.00;65435.88;6140624;23;20061;-68
2023/04/16 01:41:48;;;;;;;22.58;8.30;;;;;;;-145.50;100.00;65435.88;6136982;23;20080;-67
2023/04/16 01:44:14;;;;;;;20.70;8.55;;;;;;;-145.50;100.00;65435.88;6145670;23;20021;-68
2023/04/16 01:46:42;;;;;;;24.17;7.43;;;;;;;-145.50;100.00;65435.88;6137801;23;20026;-67
2023/04/16 01:49:09;;;;;;;23.60;9.05;;;;;;;-145.50;100.00;65435.88;6145919;23;20817;-68
2023/04/16 01:51:36;;;;;;;17.58;6.80;;;;;;;-145.50;100.00;65435.88;6140720;23;20021;-67
2023/04/16 01:54:03;;;;;;;21.17;8.32;;;;;;;-145.50;100.00;65435.88;6131002;23;20021;-67
2023/04/16 01:56:29;;;;;;;22.00;8.00;;;;;;;-145.50;100.00;65435.88;6144262;23;20420;-68
2023/04/16 01:58:56;;;;;;;25.65;9.38;;;;;;;-145.50;100.00;65435.88;6111662;23;20081;-68
2023/04/16 02:01:22;;;;;;;22.42;8.60;;;;;;;-145.50;100.00;65435.88;6119349;23;20056;-68
2023/04/16 02:03:50;;;;;;;21.40;8.82;;;;;;;-145.50;100.00;65435.88;6136392;23;20029;-68
2023/04/16 02:06:17;;;;;;;21.77;8.48;;;;;;;-145.50;100.00;65435.88;6139458;23;20444;-68
2023/04/16 02:08:43;;;;;;;20.17;8.35;;;;;;;-145.50;100.00;65435.88;6140770;23;20486;-68
2023/04/16 02:11:10;;;;;;;28.75;9.57;;;;;;;-145.50;100.00;65435.88;6136528;23;20104;-68
2023/04/16 02:13:36;;;;;;;22.95;9.35;;;;;;;-145.50;100.00;65435.88;6146252;23;20068;-68
2023/04/16 02:16:03;;;;;;;27.00;10.32;;;;;;;-145.50;100.00;65435.88;6138150;23;20398;-67
2023/04/16 02:18:29;;;;;;;31.85;9.68;;;;;;;-145.50;100.00;65435.88;6145220;23;20029;-69
2023/04/16 02:20:58;;;;;;;26.58;9.82;;;;;;;-145.50;100.00;65435.88;6132709;23;20421;-67
2023/04/16 02:23:25;;;;;;;23.38;9.82;;;;;;;-145.50;100.00;65435.88;6139346;23;20054;-68
2023/04/16 02:25:51;;;;;;;28.77;10.57;;;;;;;-145.50;100.00;65435.88;6146362;23;20147;-67
2023/04/16 02:28:18;;;;;;;24.08;10.50;;;;;;;-145.50;100.00;65435.88;6136546;23;20104;-67
2023/04/16 02:30:45;;;;;;;27.65;10.65;;;;;;;-145.50;100.00;65435.88;6141556;23;20026;-68
2023/04/16 02:33:11;;;;;;;23.88;9.80;;;;;;;-145.50;100.00;65435.88;6135695;23;20026;-69
2023/04/16 02:35:39;;;;;;;22.70;9.90;;;;;;;-145.50;100.00;65435.88;6140168;23;20029;-68
2023/04/16 02:38:06;;;;;;;35.30;11.40;;;;;;;-145.50;100.00;65435.88;6138398;23;20397;-69
2023/04/16 02:40:33;;;;;;;26.00;10.40;;;;;;;-145.50;100.00;65435.88;6140648;23;20255;-68
2023/04/16 02:43:00;;;;;;;29.17;11.20;;;;;;;-145.50;100.00;65435.88;6145336;23;20022;-67
2023/04/16 02:45:26;;;;;;;28.70;10.77;;;;;;;-145.50;100.00;65435.88;6109812;23;20427;-70
2023/04/16 02:47:53;;;;;;;27.20;9.65;;;;;;;-145.50;100.00;65435.88;6116916;23;20025;-70
2023/04/16 02:50:20;;;;;;;29.13;11.35;;;;;;;-145.50;100.00;65435.88;6136299;23;20025;-67
2023/04/16 02:52:46;;;;;;;19.83;9.73;;;;;;;-145.50;100.00;65435.88;6146187;23;20052;-67
2023/04/16 02:55:13;;;;;;;24.77;11.05;;;;;;;-145.50;100.00;65435.88;6144599;23;20067;-68
2023/04/16 02:57:41;;;;;;;21.80;10.05;;;;;;;-145.50;100.00;65435.88;6137865;23;20080;-67
2023/04/16 03:00:08;;;;;;;26.50;11.77;;;;;;;-145.50;100.00;65435.88;6139632;23;20104;-67
2023/04/16 03:02:35;;;;;;;24.98;10.45;;;;;;;-145.50;100.00;65435.88;6137426;23;20041;-73
2023/04/16 03:05:02;;;;;;;22.85;10.93;;;;;;;-145.50;100.00;65435.88;6146571;23;20068;-73
2023/04/16 03:07:29;;;;;;;22.10;10.73;;;;;;;-145.50;100.00;65435.88;6137193;23;20036;-73
2023/04/16 03:09:56;;;;;;;25.33;11.65;;;;;;;-145.50;100.00;65435.88;6145517;23;20407;-73
2023/04/16 03:12:22;;;;;;;23.65;11.55;;;;;;;-145.50;100.00;65435.88;6114582;23;20021;-73
2023/04/16 03:14:51;;;;;;;21.13;11.27;;;;;;;-145.50;100.00;65435.88;6131172;23;20491;-73
2023/04/16 03:17:18;;;;;;;24.80;11.23;;;;;;;-145.50;100.00;65435.88;6144877;23;20025;-74
2023/04/16 03:19:44;;;;;;;25.45;11.90;;;;;;;-145.50;100.00;65435.88;6137154;23;20029;-73
2023/04/16 03:22:11;;;;;;;24.95;11.15;;;;;;;-145.50;100.00;65435.88;6144833;23;20100;-72
2023/04/16 03:24:38;;;;;;;27.55;12.05;;;;;;;-145.50;100.00;65435.88;6137494;23;20063;-73
2023/04/16 03:27:04;;;;;;;25.17;11.65;;;;;;;-145.50;100.00;65435.88;6139492;23;20033;-73
2023/04/16 03:29:31;;;;;;;26.02;11.68;;;;;;;-145.50;100.00;65435.88;6139573;23;20128;-73
2023/04/16 03:31:57;;;;;;;21.75;10.38;;;;;;;-145.50;100.00;65435.88;6134189;23;20033;-72
2023/04/16 03:34:24;;;;;;;29.58;11.23;;;;;;;-145.50;100.00;65435.88;6146299;23;20026;-74
2023/04/16 03:36:50;;;;;;;22.33;11.73;;;;;;;-145.50;100.00;65435.88;6110881;23;20087;-71
2023/04/16 03:39:17;;;;;;;25.98;12.30;;;;;;;-145.50;100.00;65435.88;6145223;23;20507;-73
2023/04/16 03:41:43;;;;;;;29.45;12.35;;;;;;;-145.50;100.00;65435.88;6132939;23;20076;-73
2023/04/16 03:44:10;;;;;;;26.50;12.25;;;;;;;-145.50;100.00;65435.88;6143836;23;20057;-73
2023/04/16 03:46:36;;;;;;;20.77;11.45;;;;;;;-145.50;100.00;65435.88;6147861;23;20124;-73
2023/04/16 03:49:03;;;;;;;24.42;11.18;;;;;;;-145.50;100.00;65435.88;6139164;23;20110;-73
2023/04/16 03:51:29;;;;;;;27.88;12.93;;;;;;;-145.50;100.00;65435.88;6147358;23;20479;-74
2023/04/16 03:53:56;;;;;;;28.52;12.18;;;;;;;-145.50;100.00;65435.88;6133254;23;20076;-73
2023/04/16 03:56:23;;;;;;;25.00;13.15;;;;;;;-145.50;100.00;65435.88;6141391;23;20485;-73
2023/04/16 03:58:50;;;;;;;30.35;13.38;;;;;;;-145.50;100.00;65435.88;6147119;23;20113;-73
2023/04/16 04:01:16;;;;;;;25.83;12.23;;;;;;;-145.50;100.00;65435.88;6137148;23;20025;-74
2023/04/16 04:03:43;;;;;;;30.30;13.23;;;;;;;-145.50;100.00;65435.88;6147450;23;20518;-74
2023/04/16 04:06:10;;;;;;;26.88;12.15;;;;;;;-145.50;100.00;65435.88;6139013;23;20044;-73
2023/04/16 04:08:36;;;;;;;29.33;12.98;;;;;;;-145.50;100.00;65435.88;6141876;23;20080;-73
2023/04/16 04:11:03;;;;;;;22.77;10.98;;;;;;;-145.50;100.00;65435.88;6133633;23;20060;-72
2023/04/16 04:13:29;;;;;;;29.40;12.45;;;;;;;-145.50;100.00;65435.88;6119536;23;20032;-73
2023/04/16 04:15:56;;;;;;;29.05;12.82;;;;;;;-145.50;100.00;65435.88;6147800;23;20085;-71
2023/04/16 04:18:22;;;;;;;29.20;12.73;;;;;;;-145.50;100.00;65435.88;6137848;23;20030;-74
2023/04/16 04:20:49;;;;;;;38.72;14.57;;;;;;;-145.50;100.00;65435.88;6147425;23;20021;-73
2023/04/16 04:23:15;;;;;;;29.55;12.75;;;;;;;-145.50;100.00;65435.88;6133047;23;20468;-74
2023/04/16 04:25:42;;;;;;;29.23;13.18;;;;;;;-145.50;100.00;65435.88;6141954;23;20363;-74
2023/04/16 04:28:09;;;;;;;25.60;13.10;;;;;;;-145.50;100.00;65435.88;6146682;23;20056;-72
2023/04/16 04:30:35;;;;;;;27.55;13.23;;;;;;;-145.50;100.00;65435.88;6109884;23;20034;-73
2023/04/16 04:33:02;;;;;;;29.85;12.80;;;;;;;-145.50;100.00;65435.88;6146742;23;20033;-74
2023/04/16 04:35:28;;;;;;;32.78;14.25;;;;;;;-145.50;100.00;65435.88;6112123;23;20104;-73
2023/04/16 04:37:55;;;;;;;27.90;12.88;;;;;;;-145.50;100.00;65435.88;6142685;23;20072;-73
2023/04/16 04:40:22;;;;;;;31.55;13.90;;;;;;;-145.50;100.00;65435.88;6133031;23;20044;-73
2023/04/16 04:42:48;;;;;;;26.42;12.15;;;;;;;-145.50;100.00;65435.88;6146580;23;20044;-73
2023/04/16 04:45:15;;;;;;;27.65;14.02;;;;;;;-145.50;100.00;65435.88;6120410;23;20543;-73
2023/04/16 04:47:41;;;;;;;30.40;14.63;;;;;;;-145.50;100.00;65435.88;6137814;23;20039;-74
2023/04/16 04:50:08;;;;;;;30.63;14.27;;;;;;;-145.50;100.00;65435.88;6146879;23;20033;-74
2023/04/16 04:52:35;;;;;;;31.67;14.00;;;;;;;-145.50;100.00;65435.88;6129761;23;20365;-74
2023/04/16 04:55:01;;;;;;;29.58;14.23;;;;;;;-145.50;100.00;65435.88;6145748;23;20367;-72
2023/04/16 04:57:28;;;;;;;31.17;15.02;;;;;;;-145.50;100.00;65435.88;6142653;23;20404;-72
2023/04/16 04:59:54;;;;;;;33.78;14.90;;;;;;;-145.50;100.00;65435.88;6142896;23;20463;-73
2023/04/16 05:02:21;;;;;;;32.13;14.43;;;;;;;-145.50;100.00;65435.88;6145312;23;20484;-73
2023/04/16 05:04:47;;;;;;;29.83;13.93;;;;;;;-145.50;100.00;65435.88;6133455;23;20048;-73
2023/04/16 05:07:15;;;;;;;34.25;15.32;;;;;;;-145.50;100.00;65435.88;6141157;23;20487;-73
2023/04/16 05:09:41;;;;;;;31.50;14.52;;;;;;;-145.50;100.00;65435.88;6137501;23;20032;-73
2023/04/16 05:12:08;;;;;;;34.22;14.25;;;;;;;-145.50;100.00;65435.88;6146678;23;20356;-73
2023/04/16 05:14:35;;;;;;;32.17;15.73;;;;;;;-145.50;100.00;65435.88;6147424;23;20419;-74
2023/04/16 05:17:01;;;;;;;31.13;15.13;;;;;;;-145.50;100.00;65435.88;6139450;23;20067;-72
2023/04/16 05:19:28;;;;;;;34.88;15.20;;;;;;;-145.50;100.00;65435.88;6140957;23;20033;-74
2023/04/16 05:21:55;;;;;;;30.70;13.95;;;;;;;-145.50;100.00;65435.88;6107595;23;20061;-74
2023/04/16 05:24:21;;;;;;;31.75;14.30;;;;;;;-145.50;100.00;65435.88;6145428;23;20104;-72
2023/04/16 05:26:48;;;;;;;32.25;13.70;;;;;;;-145.50;100.00;65435.88;6138182;23;20105;-73
2023/04/16 05:29:14;;;;;;;33.33;14.63;;;;;;;-145.50;100.00;65435.88;6146613;23;20021;-73
2023/04/16 05:31:41;;;;;;;36.22;15.43;;;;;;;-145.50;100.00;65435.88;6144854;23;20060;-72
2023/04/16 05:34:07;;;;;;;38.60;14.55;;;;;;;-145.50;100.00;65435.88;6131763;23;20440;-73
2023/04/16 05:36:34;;;;;;;29.98;14.98;;;;;;;-145.50;100.00;65435.88;6140999;23;20472;-73
2023/04/16 05:39:00;;;;;;;38.30;16.27;;;;;;;-145.50;100.00;65435.88;6136775;23;20026;-74
2023/04/16 05:41:27;;;;;;;31.33;15.13;;;;;;;-145.50;100.00;65435.88;6146864;23;20052;-72
2023/04/16 05:43:53;;;;;;;31.23;15.98;;;;;;;-145.50;100.00;65435.88;6112262;23;20589;-73
2023/04/16 05:46:20;;;;;;;36.55;15.93;;;;;;;-145.50;100.00;65435.88;6145308;23;20052;-73
2023/04/16 05:48:46;;;;;;;31.42;14.65;;;;;;;-145.50;100.00;65435.88;6115176;23;20820;-72
2023/04/16 05:51:13;;;;;;;38.13;15.15;;;;;;;-145.50;100.00;65435.88;6132666;23;20055;-73
2023/04/16 05:53:39;;;;;;;35.72;15.90;;;;;;;-145.50;100.00;65435.88;6147543;23;20539;-74
2023/04/16 05:56:06;;;;;;;31.00;13.55;;;;;;;-145.50;100.00;65435.88;6138904;23;20033;-73
2023/04/16 05:58:33;;;;;;;25.58;13.52;;;;;;;-145.50;100.00;65435.88;6148740;23;20423;-71
2023/04/16 06:01:00;;;;;;;26.52;12.05;;;;;;;-145.50;100.00;65435.88;6144550;23;20082;-72
2023/04/16 06:03:29;;;;;;;30.92;15.63;;;;;;;-145.50;100.00;65435.88;6138332;23;20470;-72
2023/04/16 06:05:56;;;;;;;24.70;13.10;;;;;;;-145.50;100.00;65435.88;6147489;23;20088;-72
2023/04/16 06:08:22;;;;;;;23.15;12.85;;;;;;;-145.50;100.00;65435.88;6111536;23;20032;-72
2023/04/16 06:10:49;;;;;;;24.02;13.63;;;;;;;-145.50;100.00;65435.88;6154766;23;20377;-73
2023/04/16 06:13:17;;;;;;;27.08;12.98;;;;;;;-145.50;100.00;65435.88;6138135;23;20065;-73
2023/04/16 06:15:45;;;;;;;30.92;14.38;;;;;;;-145.50;100.00;65435.88;6143773;23;20057;-74
2023/04/16 06:18:12;;;;;;;23.73;12.80;;;;;;;-145.50;100.00;65435.88;6134696;23;20056;-72
2023/04/16 06:20:39;;;;;;;30.45;13.50;;;;;;;-145.50;100.00;65435.88;6149125;23;20258;-71
2023/04/16 06:23:05;;;;;;;30.10;13.45;;;;;;;-145.50;100.00;65435.88;6150875;23;20057;-73
2023/04/16 06:25:32;;;;;;;29.92;13.43;;;;;;;-145.50;100.00;65435.88;6115152;23;20065;-72
2023/04/16 06:27:58;;;;;;;22.23;12.70;;;;;;;-145.50;100.00;65435.88;6151158;23;20081;-72
2023/04/16 06:30:25;;;;;;;24.55;13.60;;;;;;;-145.50;100.00;65435.88;6113570;23;20401;-72
2023/04/16 06:32:52;;;;;;;28.17;13.93;;;;;;;-145.50;100.00;65435.88;6125660;23;20097;-73
2023/04/16 06:35:19;;;;;;;27.27;13.32;;;;;;;-145.50;100.00;65435.88;6126145;23;20033;-73
2023/04/16 06:37:46;;;;;;;25.92;14.13;;;;;;;-145.50;100.00;65435.88;6117272;23;20056;-73
2023/04/16 06:40:12;;;;;;;27.98;13.30;;;;;;;-145.50;100.00;65435.88;6146243;23;20439;-73
2023/04/16 06:42:39;;;;;;;26.25;13.88;;;;;;;-145.50;100.00;65435.88;6153971;23;20029;-71
2023/04/16 06:45:07;;;;;;;25.20;13.20;;;;;;;-145.50;100.00;65435.88;6170625;23;20088;-72
2023/04/16 06:47:35;;;;;;;22.50;12.83;;;;;;;-145.50;100.00;65435.88;6161116;23;20041;-73
2023/04/16 06:50:01;;;;;;;25.65;13.70;;;;;;;-145.50;100.00;65435.88;6155003;23;20247;-71
2023/04/16 06:52:28;;;;;;;22.80;12.45;;;;;;;-145.50;100.00;65435.88;6151576;23;20368;-72
2023/04/16 06:54:55;;;;;;;20.88;11.52;;;;;;;-145.50;100.00;65435.88;6137279;23;20491;-72
2023/04/16 06:57:22;;;;;;;26.92;13.07;;;;;;;-145.50;100.00;65435.88;6144819;23;20032;-72
2023/04/16 06:59:51;;;;;;;29.63;13.75;;;;;;;-145.50;100.00;65435.88;6142043;23;20088;-72
2023/04/16 07:02:18;;;;;;;27.10;12.88;;;;;;;-145.50;100.00;65435.88;6147685;23;20025;-73
2023/04/16 07:04:44;;;;;;;21.30;13.55;;;;;;;-145.50;100.00;65435.88;6114322;23;20096;-72
2023/04/16 07:07:11;;;;;;;27.15;12.60;;;;;;;-145.50;100.00;65435.88;6146176;23;20439;-73
2023/04/16 07:09:37;;;;;;;26.70;12.73;;;;;;;-145.50;100.00;65435.88;6113051;23;20025;-73
2023/04/16 07:12:05;;;;;;;22.95;13.10;;;;;;;-145.50;100.00;65435.88;6133245;23;20105;-73
2023/04/16 07:14:32;;;;;;;24.45;12.73;;;;;;;-145.50;100.00;65435.88;6146046;23;20468;-72
2023/04/16 07:16:58;;;;;;;23.38;13.20;;;;;;;-145.50;100.00;65435.88;6137215;23;20065;-72
2023/04/16 07:19:29;;;;;;;23.30;12.50;;;;;;;-145.50;100.00;65435.88;6145367;23;20083;-72
2023/04/16 07:21:55;;;;;;;22.55;12.48;;;;;;;-145.50;100.00;65435.88;6113740;23;20147;-70
2023/04/16 07:24:22;;;;;;;22.23;12.63;;;;;;;-145.50;100.00;65435.88;6133918;23;20116;-71
2023/04/16 07:26:48;;;;;;;23.17;12.95;;;;;;;-145.50;100.00;65435.88;6145243;23;20029;-72
2023/04/16 07:29:15;;;;;;;24.25;12.23;;;;;;;-145.50;100.00;65435.88;6136003;23;20334;-73
2023/04/16 07:31:41;;;;;;;23.23;12.18;;;;;;;-145.50;100.00;65435.88;6144720;23;20096;-71
2023/04/16 07:34:08;;;;;;;20.05;11.93;;;;;;;-145.50;100.00;65435.88;6111196;23;20029;-72
2023/04/16 07:36:35;;;;;;;19.33;11.52;;;;;;;-145.50;100.00;65435.88;6141172;23;20346;-74
2023/04/16 07:39:01;;;;;;;20.63;11.57;;;;;;;-145.50;100.00;65435.88;6140997;23;20447;-72
2023/04/16 07:41:28;;;;;;;21.92;12.98;;;;;;;-145.50;100.00;65435.88;6136203;23;20363;-70
2023/04/16 07:43:54;;;;;;;29.40;13.30;;;;;;;-145.50;100.00;65435.88;6145143;23;20064;-72
2023/04/16 07:46:21;;;;;;;26.67;13.45;;;;;;;-145.50;100.00;65435.88;6136490;23;20037;-71
2023/04/16 07:48:47;;;;;;;22.52;12.68;;;;;;;-145.50;100.00;65435.88;6145884;23;20067;-72
2023/04/16 07:51:14;;;;;;;23.77;12.95;;;;;;;-145.50;100.00;65435.88;6131485;23;20029;-72
2023/04/16 07:53:42;;;;;;;21.90;12.43;;;;;;;-145.50;100.00;65435.88;6139437;23;20136;-71
2023/04/16 07:56:08;;;;;;;19.95;12.00;;;;;;;-145.50;100.00;65435.88;6119762;23;20029;-73
2023/04/16 07:58:35;;;;;;;23.33;12.45;;;;;;;-145.50;100.00;65435.88;6136730;23;20070;-73
2023/04/16 08:01:01;;;;;;;22.58;12.70;;;;;;;-145.50;100.00;65435.88;6120489;23;20052;-72
2023/04/16 08:03:28;;;;;;;24.73;13.10;;;;;;;-145.50;100.00;65435.88;6135935;23;20056;-72
2023/04/16 08:05:55;;;;;;;19.30;12.00;;;;;;;-145.50;100.00;65435.88;6142125;23;20029;-73
2023/04/16 08:08:21;;;;;;;21.85;12.93;;;;;;;-145.50;100.00;65435.88;6136401;23;20026;-71
2023/04/16 08:10:48;;;;;;;25.30;12.93;;;;;;;-145.50;100.00;65435.88;6141762;23;20039;-72
2023/04/16 08:13:14;;;;;;;20.48;12.18;;;;;;;-145.50;100.00;65435.88;6145846;23;20021;-73
2023/04/16 08:15:41;;;;;;;26.10;13.48;;;;;;;-145.50;100.00;65435.88;6138164;23;20030;-72
2023/04/16 08:18:11;;;;;;;24.70;12.63;;;;;;;-145.50;100.00;65435.88;6147007;23;20029;-73
2023/04/16 08:20:38;;;;;;;21.15;12.73;;;;;;;-145.50;100.00;65435.88;6132865;23;20523;-72
2023/04/16 08:23:04;;;;;;;21.25;13.27;;;;;;;-145.50;100.00;65435.88;6141575;23;20021;-73
2023/04/16 08:25:31;;;;;;;22.90;11.73;;;;;;;-145.50;100.00;65435.88;6148130;23;20481;-72
2023/04/16 08:27:57;;;;;;;25.50;13.88;;;;;;;-145.50;100.00;65435.88;6152248;23;20036;-71
2023/04/16 08:30:24;;;;;;;21.55;12.38;;;;;;;-145.50;100.00;65435.88;6149432;23;20048;-73
2023/04/16 08:32:51;;;;;;;26.30;13.63;;;;;;;-145.50;100.00;65435.88;6138915;23;20045;-72
2023/04/16 08:35:17;;;;;;;24.60;14.38;;;;;;;-145.50;100.00;65435.88;6139928;23;20037;-71
2023/04/16 08:37:44;;;;;;;23.05;12.88;;;;;;;-145.50;100.00;65435.88;6136965;23;20342;-73
2023/04/16 08:40:11;;;;;;;22.35;13.30;;;;;;;-145.50;100.00;65435.88;6147683;23;20112;-72
2023/04/16 08:42:54;;;;;;;22.70;13.02;;;;;;;-145.50;100.00;65435.88;6148235;23;20106;-73
2023/04/16 08:45:21;;;;;;;27.45;13.98;;;;;;;-145.50;100.00;65435.88;6138490;23;20416;-73
2023/04/16 08:47:50;;;;;;;24.35;13.90;;;;;;;-145.50;100.00;65435.88;6142291;23;20060;-73
2023/04/16 08:50:22;;;;;;;22.48;13.20;;;;;;;-145.50;100.00;65435.88;6134459;23;20529;-73
2023/04/16 08:52:57;;;;;;;22.00;14.18;;;;;;;-145.50;100.00;65435.88;6148297;23;20385;-73
2023/04/16 08:55:48;;;;;;;25.65;14.10;;;;;;;-145.50;100.00;65435.88;6139471;23;20033;-72
2023/04/16 08:58:17;;;;;;;26.73;14.10;;;;;;;-145.50;100.00;65435.88;6132817;23;20065;-72
2023/04/16 09:00:45;;;;;;;22.38;13.73;;;;;;;-145.50;100.00;65435.88;6137877;23;20357;-72
2023/04/16 09:03:12;;;;;;;27.00;13.57;;;;;;;-145.50;100.00;65435.88;6138510;23;20456;-70
2023/04/16 09:05:38;;;;;;;25.52;14.18;;;;;;;-145.50;100.00;65435.88;6147655;23;20029;-72
2023/04/16 09:08:05;;;;;;;27.17;15.23;;;;;;;-145.50;100.00;65435.88;6139010;23;20028;-73
2023/04/16 09:10:33;;;;;;;28.20;15.15;;;;;;;-145.50;100.00;65435.88;6121673;23;20061;-73
2023/04/16 09:13:00;;;;;;;29.92;16.48;;;;;;;-145.50;100.00;65435.88;6138745;23;20496;-73
2023/04/16 09:15:26;;;;;;;27.10;14.60;;;;;;;-145.50;100.00;65435.88;6142829;23;20890;-73
2023/04/16 09:17:53;;;;;;;28.08;15.55;;;;;;;-145.50;100.00;65435.88;6142543;23;20053;-73
2023/04/16 09:20:20;;;;;;;34.33;16.35;;;;;;;-145.50;100.00;65435.88;6137651;23;20025;-73
2023/04/16 09:22:47;;;;;;;25.50;13.82;;;;;;;-145.50;100.00;65435.88;6147227;23;20135;-74
2023/04/16 09:25:14;;;;;;;30.38;15.65;;;;;;;-145.50;100.00;65435.88;6139277;23;20029;-73
2023/04/16 09:27:41;;;;;;;32.33;16.35;;;;;;;-145.50;100.00;65435.88;6147230;23;20721;-73
2023/04/16 09:30:25;;;;;;;28.73;15.13;;;;;;;-145.50;100.00;65435.88;6131168;23;20122;-73
2023/04/16 09:33:11;;;;;;;32.50;15.70;;;;;;;-145.50;100.00;65435.88;6142474;23;20029;-73
2023/04/16 09:35:51;;;;;;;30.33;15.40;;;;;;;-145.50;100.00;65435.88;6114054;23;20068;-73
2023/04/16 09:38:19;;;;;;;34.22;16.38;;;;;;;-145.50;100.00;65435.88;6146196;23;20032;-73
2023/04/16 09:40:48;;;;;;;30.60;16.50;;;;;;;-145.50;100.00;65435.88;6148201;23;20105;-72
2023/04/16 09:43:17;;;;;;;33.70;17.23;;;;;;;-145.50;100.00;65435.88;6135032;23;20034;-72
2023/04/16 09:45:52;;;;;;;32.58;16.33;;;;;;;-145.50;100.00;65435.88;6113814;23;20131;-73
2023/04/16 09:48:32;;;;;;;35.50;17.35;;;;;;;-145.50;100.00;65435.88;6138551;23;20029;-73
2023/04/16 09:51:00;;;;;;;37.28;17.00;;;;;;;-145.50;100.00;65435.88;6121096;23;20102;-73
2023/04/16 09:53:28;;;;;;;27.20;15.57;;;;;;;-145.50;100.00;65435.88;6138987;23;20061;-73
2023/04/16 09:55:58;;;;;;;28.52;15.85;;;;;;;-145.50;100.00;65435.88;6146273;23;20025;-73
2023/04/16 09:58:25;;;;;;;28.70;16.05;;;;;;;-145.50;100.00;65435.88;6141886;23;20025;-74
2023/04/16 10:01:12;;;;;;;29.85;16.90;;;;;;;-145.50;100.00;65435.88;6107060;23;20035;-73
2023/04/16 10:03:39;;;;;;;26.13;14.63;;;;;;;-145.50;100.00;65435.88;6147599;23;20021;-73
2023/04/16 10:06:15;;;;;;;29.33;16.70;;;;;;;-145.50;100.00;65435.88;6138911;23;20558;-73
2023/04/16 10:08:45;;;;;;;32.15;15.85;;;;;;;-145.50;100.00;65435.88;6147479;23;20030;-73
2023/04/16 10:11:16;;;;;;;31.83;16.73;;;;;;;-145.50;100.00;65435.88;6136746;23;20574;-74
2023/04/16 10:13:43;;;;;;;25.48;15.77;;;;;;;-145.50;100.00;65435.88;6137093;23;20255;-74
2023/04/16 10:16:10;;;;;;;32.72;17.15;;;;;;;-145.50;100.00;65435.88;6137739;23;20029;-73
2023/04/16 10:18:46;;;;;;;29.63;16.17;;;;;;;-145.50;100.00;65435.88;6146288;23;20405;-73
2023/04/16 10:21:15;;;;;;;32.67;16.50;;;;;;;-145.50;100.00;65435.88;6146767;23;20491;-73
2023/04/16 10:23:42;;;;;;;30.63;17.23;;;;;;;-145.50;100.00;65435.88;6138446;23;20035;-72
2023/04/16 10:26:09;;;;;;;31.95;16.70;;;;;;;-145.50;100.00;65435.88;6141287;23;20523;-73
2023/04/16 10:28:36;;;;;;;32.35;14.60;;;;;;;-145.50;100.00;65435.88;6132758;23;20053;-73
2023/04/16 10:31:06;;;;;;;30.35;15.43;;;;;;;-145.50;100.00;65435.88;6144780;23;20064;-74
2023/04/16 10:33:35;;;;;;;29.50;16.40;;;;;;;-145.50;100.00;65435.88;6137809;23;20058;-73
2023/04/16 10:36:29;;;;;;;30.33;16.33;;;;;;;-145.50;100.00;65435.88;6120107;23;20112;-73
2023/04/16 10:38:58;;;;;;;29.35;15.07;;;;;;;-145.50;100.00;65435.88;6115660;23;20025;-73
2023/04/16 10:41:26;;;;;;;28.95;15.25;;;;;;;-145.50;100.00;65435.88;6139629;23;20033;-74
2023/04/16 10:44:02;;;;;;;27.30;15.05;;;;;;;-145.50;100.00;65435.88;6138837;23;20071;-73
2023/04/16 10:46:40;;;;;;;27.90;15.55;;;;;;;-145.50;100.00;65435.88;6138607;23;20423;-73
2023/04/16 10:49:22;;;;;;;25.88;13.98;;;;;;;-145.50;100.00;65435.88;6146502;23;20053;-73
2023/04/16 10:52:02;;;;;;;29.60;15.73;;;;;;;-145.50;100.00;65435.88;6113219;23;20104;-73
2023/04/16 10:54:33;;;;;;;30.58;16.90;;;;;;;-145.50;100.00;65435.88;6141906;23;20031;-73
2023/04/16 10:57:07;;;;;;;26.88;16.15;;;;;;;-145.50;100.00;65435.88;6137951;23;20140;-74
2023/04/16 10:59:38;;;;;;;31.70;16.05;;;;;;;-145.50;100.00;65435.88;6148072;23;20025;-73